sensor_id;sensor_type;location;lat;lon;timestamp;P1;durP1;ratioP1;P2;durP2;ratioP2
24685;SDS011;12804;51.176;4.452;2022-12-01T00:00:43;40.25;;;23.00;;
24685;SDS011;12804;51.176;4.452;2022-12-01T00:03:08;37.72;;;21.98;;
24685;SDS011;12804;51.176;4.452;2022-12-01T00:05:35;36.80;;;22.55;;
24685;SDS011;12804;51.176;4.452;2022-12-01T00:08:01;42.10;;;24.63;;
24685;SDS011;12804;51.176;4.452;2022-12-01T00:10:29;42.75;;;25.27;;
24685;SDS011;12804;51.176;4.452;2022-12-01T00:13:00;42.10;;;24.40;;
24685;SDS011;12804;51.176;4.452;2022-12-01T00:15:29;47.30;;;25.63;;
24685;SDS011;12804;51.176;4.452;2022-12-01T00:17:58;47.35;;;26.15;;
24685;SDS011;12804;51.176;4.452;2022-12-01T00:20:25;42.42;;;24.63;;
24685;SDS011;12804;51.176;4.452;2022-12-01T00:22:51;43.10;;;26.65;;
24685;SDS011;12804;51.176;4.452;2022-12-01T00:25:18;46.65;;;26.42;;
24685;SDS011;12804;51.176;4.452;2022-12-01T00:27:47;44.92;;;25.25;;
24685;SDS011;12804;51.176;4.452;2022-12-01T00:30:14;44.58;;;26.67;;
24685;SDS011;12804;51.176;4.452;2022-12-01T00:32:41;48.05;;;26.25;;
24685;SDS011;12804;51.176;4.452;2022-12-01T00:35:07;45.97;;;26.50;;
24685;SDS011;12804;51.176;4.452;2022-12-01T00:37:33;46.60;;;27.85;;
24685;SDS011;12804;51.176;4.452;2022-12-01T00:40:00;43.80;;;25.52;;
24685;SDS011;12804;51.176;4.452;2022-12-01T00:42:26;44.97;;;25.90;;
24685;SDS011;12804;51.176;4.452;2022-12-01T00:44:52;42.25;;;25.55;;
24685;SDS011;12804;51.176;4.452;2022-12-01T00:47:18;37.67;;;24.23;;
24685;SDS011;12804;51.176;4.452;2022-12-01T00:49:44;43.42;;;24.90;;
24685;SDS011;12804;51.176;4.452;2022-12-01T00:52:14;41.63;;;25.65;;
24685;SDS011;12804;51.176;4.452;2022-12-01T00:54:41;44.83;;;25.15;;
24685;SDS011;12804;51.176;4.452;2022-12-01T00:57:07;41.67;;;24.65;;
24685;SDS011;12804;51.176;4.452;2022-12-01T00:59:34;40.28;;;24.58;;
24685;SDS011;12804;51.176;4.452;2022-12-01T01:02:00;40.42;;;24.65;;
24685;SDS011;12804;51.176;4.452;2022-12-01T01:04:30;42.67;;;25.08;;
24685;SDS011;12804;51.176;4.452;2022-12-01T01:06:57;40.20;;;25.00;;
24685;SDS011;12804;51.176;4.452;2022-12-01T01:09:23;41.75;;;25.13;;
24685;SDS011;12804;51.176;4.452;2022-12-01T01:11:50;39.47;;;24.70;;
24685;SDS011;12804;51.176;4.452;2022-12-01T01:14:16;43.35;;;25.25;;
24685;SDS011;12804;51.176;4.452;2022-12-01T01:16:42;43.45;;;25.63;;
24685;SDS011;12804;51.176;4.452;2022-12-01T01:19:08;37.20;;;22.00;;
24685;SDS011;12804;51.176;4.452;2022-12-01T01:21:34;39.20;;;23.00;;
24685;SDS011;12804;51.176;4.452;2022-12-01T01:24:00;38.95;;;23.88;;
24685;SDS011;12804;51.176;4.452;2022-12-01T01:26:27;38.38;;;22.52;;
24685;SDS011;12804;51.176;4.452;2022-12-01T01:28:55;39.15;;;24.13;;
24685;SDS011;12804;51.176;4.452;2022-12-01T01:31:23;38.85;;;23.33;;
24685;SDS011;12804;51.176;4.452;2022-12-01T01:33:50;37.22;;;23.60;;
24685;SDS011;12804;51.176;4.452;2022-12-01T01:36:17;38.25;;;23.45;;
24685;SDS011;12804;51.176;4.452;2022-12-01T01:38:44;35.03;;;21.58;;
24685;SDS011;12804;51.176;4.452;2022-12-01T01:41:10;33.65;;;21.73;;
24685;SDS011;12804;51.176;4.452;2022-12-01T01:46:11;35.40;;;21.73;;
24685;SDS011;12804;51.176;4.452;2022-12-01T01:48:42;36.70;;;21.65;;
24685;SDS011;12804;51.176;4.452;2022-12-01T01:51:12;36.00;;;21.05;;
24685;SDS011;12804;51.176;4.452;2022-12-01T01:53:40;36.05;;;22.20;;
24685;SDS011;12804;51.176;4.452;2022-12-01T01:56:07;34.22;;;21.65;;
24685;SDS011;12804;51.176;4.452;2022-12-01T01:58:33;37.53;;;23.08;;
24685;SDS011;12804;51.176;4.452;2022-12-01T02:01:01;39.28;;;22.80;;
24685;SDS011;12804;51.176;4.452;2022-12-01T02:03:27;36.75;;;21.58;;
24685;SDS011;12804;51.176;4.452;2022-12-01T02:05:54;32.83;;;21.05;;
24685;SDS011;12804;51.176;4.452;2022-12-01T02:08:20;34.95;;;21.33;;
24685;SDS011;12804;51.176;4.452;2022-12-01T02:19:16;30.52;;;18.13;;
24685;SDS011;12804;51.176;4.452;2022-12-01T02:22:25;31.60;;;18.70;;
24685;SDS011;12804;51.176;4.452;2022-12-01T02:28:38;31.67;;;19.45;;
24685;SDS011;12804;51.176;4.452;2022-12-01T02:31:31;31.70;;;19.58;;
24685;SDS011;12804;51.176;4.452;2022-12-01T02:39:47;36.47;;;20.00;;
24685;SDS011;12804;51.176;4.452;2022-12-01T02:42:28;31.58;;;19.23;;
24685;SDS011;12804;51.176;4.452;2022-12-01T02:45:15;36.22;;;19.90;;
24685;SDS011;12804;51.176;4.452;2022-12-01T02:47:46;34.58;;;21.63;;
24685;SDS011;12804;51.176;4.452;2022-12-01T02:50:13;32.83;;;18.10;;
24685;SDS011;12804;51.176;4.452;2022-12-01T02:52:39;28.92;;;17.52;;
24685;SDS011;12804;51.176;4.452;2022-12-01T02:55:06;30.52;;;16.27;;
24685;SDS011;12804;51.176;4.452;2022-12-01T02:57:33;28.67;;;17.13;;
24685;SDS011;12804;51.176;4.452;2022-12-01T02:59:58;30.20;;;16.95;;
24685;SDS011;12804;51.176;4.452;2022-12-01T03:08:31;27.10;;;16.63;;
24685;SDS011;12804;51.176;4.452;2022-12-01T03:11:10;29.83;;;17.17;;
24685;SDS011;12804;51.176;4.452;2022-12-01T03:16:27;29.08;;;16.08;;
24685;SDS011;12804;51.176;4.452;2022-12-01T03:19:19;28.75;;;16.48;;
24685;SDS011;12804;51.176;4.452;2022-12-01T03:21:52;31.52;;;17.30;;
24685;SDS011;12804;51.176;4.452;2022-12-01T03:24:34;32.25;;;18.60;;
24685;SDS011;12804;51.176;4.452;2022-12-01T03:27:02;29.02;;;16.60;;
24685;SDS011;12804;51.176;4.452;2022-12-01T03:29:30;29.95;;;17.13;;
24685;SDS011;12804;51.176;4.452;2022-12-01T03:32:16;30.33;;;17.83;;
24685;SDS011;12804;51.176;4.452;2022-12-01T03:34:48;31.63;;;17.38;;
24685;SDS011;12804;51.176;4.452;2022-12-01T03:37:27;30.70;;;17.30;;
24685;SDS011;12804;51.176;4.452;2022-12-01T03:39:56;30.50;;;17.63;;
24685;SDS011;12804;51.176;4.452;2022-12-01T03:42:24;32.95;;;17.45;;
24685;SDS011;12804;51.176;4.452;2022-12-01T03:44:55;29.40;;;17.20;;
24685;SDS011;12804;51.176;4.452;2022-12-01T03:47:25;33.08;;;18.20;;
24685;SDS011;12804;51.176;4.452;2022-12-01T03:49:56;30.70;;;17.25;;
24685;SDS011;12804;51.176;4.452;2022-12-01T03:54:58;29.55;;;17.02;;
24685;SDS011;12804;51.176;4.452;2022-12-01T03:57:33;29.85;;;16.85;;
24685;SDS011;12804;51.176;4.452;2022-12-01T04:00:20;28.55;;;16.55;;
24685;SDS011;12804;51.176;4.452;2022-12-01T04:02:46;32.67;;;18.02;;
24685;SDS011;12804;51.176;4.452;2022-12-01T04:05:13;28.20;;;16.85;;
24685;SDS011;12804;51.176;4.452;2022-12-01T04:07:39;29.55;;;16.65;;
24685;SDS011;12804;51.176;4.452;2022-12-01T04:10:05;29.90;;;18.02;;
24685;SDS011;12804;51.176;4.452;2022-12-01T04:12:32;28.38;;;15.73;;
24685;SDS011;12804;51.176;4.452;2022-12-01T04:14:59;29.33;;;16.55;;
24685;SDS011;12804;51.176;4.452;2022-12-01T04:17:26;29.83;;;17.13;;
24685;SDS011;12804;51.176;4.452;2022-12-01T04:19:53;28.95;;;16.52;;
24685;SDS011;12804;51.176;4.452;2022-12-01T04:22:19;30.85;;;17.35;;
24685;SDS011;12804;51.176;4.452;2022-12-01T04:24:45;29.83;;;15.95;;
24685;SDS011;12804;51.176;4.452;2022-12-01T04:27:11;29.15;;;15.93;;
24685;SDS011;12804;51.176;4.452;2022-12-01T04:29:37;26.90;;;16.13;;
24685;SDS011;12804;51.176;4.452;2022-12-01T04:32:03;31.80;;;16.40;;
24685;SDS011;12804;51.176;4.452;2022-12-01T04:34:29;30.98;;;17.02;;
24685;SDS011;12804;51.176;4.452;2022-12-01T04:36:55;30.88;;;17.33;;
24685;SDS011;12804;51.176;4.452;2022-12-01T04:39:21;32.55;;;17.35;;
24685;SDS011;12804;51.176;4.452;2022-12-01T04:41:47;27.08;;;16.58;;
24685;SDS011;12804;51.176;4.452;2022-12-01T04:44:12;29.83;;;16.90;;
24685;SDS011;12804;51.176;4.452;2022-12-01T04:46:38;30.23;;;17.10;;
24685;SDS011;12804;51.176;4.452;2022-12-01T04:49:04;32.33;;;17.27;;
24685;SDS011;12804;51.176;4.452;2022-12-01T04:51:30;28.92;;;17.42;;
24685;SDS011;12804;51.176;4.452;2022-12-01T04:53:56;31.98;;;18.45;;
24685;SDS011;12804;51.176;4.452;2022-12-01T04:56:22;32.70;;;17.90;;
24685;SDS011;12804;51.176;4.452;2022-12-01T04:58:49;30.02;;;17.30;;
24685;SDS011;12804;51.176;4.452;2022-12-01T05:01:16;35.13;;;17.73;;
24685;SDS011;12804;51.176;4.452;2022-12-01T05:03:44;34.10;;;19.40;;
24685;SDS011;12804;51.176;4.452;2022-12-01T05:06:15;38.00;;;18.80;;
24685;SDS011;12804;51.176;4.452;2022-12-01T05:08:43;32.40;;;18.40;;
24685;SDS011;12804;51.176;4.452;2022-12-01T05:11:09;33.03;;;18.45;;
24685;SDS011;12804;51.176;4.452;2022-12-01T05:13:37;36.08;;;18.92;;
24685;SDS011;12804;51.176;4.452;2022-12-01T05:16:11;35.22;;;19.55;;
24685;SDS011;12804;51.176;4.452;2022-12-01T05:18:39;34.35;;;19.30;;
24685;SDS011;12804;51.176;4.452;2022-12-01T05:21:06;36.35;;;20.00;;
24685;SDS011;12804;51.176;4.452;2022-12-01T05:23:34;38.05;;;20.15;;
24685;SDS011;12804;51.176;4.452;2022-12-01T05:26:02;35.88;;;19.05;;
24685;SDS011;12804;51.176;4.452;2022-12-01T05:28:29;35.28;;;19.73;;
24685;SDS011;12804;51.176;4.452;2022-12-01T05:30:55;35.55;;;19.08;;
24685;SDS011;12804;51.176;4.452;2022-12-01T05:33:22;36.90;;;19.77;;
24685;SDS011;12804;51.176;4.452;2022-12-01T05:35:48;33.10;;;18.70;;
24685;SDS011;12804;51.176;4.452;2022-12-01T05:38:14;32.67;;;18.58;;
24685;SDS011;12804;51.176;4.452;2022-12-01T05:40:40;35.55;;;18.73;;
24685;SDS011;12804;51.176;4.452;2022-12-01T05:43:06;35.78;;;18.77;;
24685;SDS011;12804;51.176;4.452;2022-12-01T05:45:33;35.28;;;19.90;;
24685;SDS011;12804;51.176;4.452;2022-12-01T05:47:59;35.95;;;19.95;;
24685;SDS011;12804;51.176;4.452;2022-12-01T05:50:26;36.58;;;20.77;;
24685;SDS011;12804;51.176;4.452;2022-12-01T05:52:54;38.35;;;20.80;;
24685;SDS011;12804;51.176;4.452;2022-12-01T05:55:20;40.40;;;21.45;;
24685;SDS011;12804;51.176;4.452;2022-12-01T05:57:46;38.97;;;21.23;;
24685;SDS011;12804;51.176;4.452;2022-12-01T06:00:12;40.28;;;21.42;;
24685;SDS011;12804;51.176;4.452;2022-12-01T06:02:39;42.80;;;22.10;;
24685;SDS011;12804;51.176;4.452;2022-12-01T06:05:06;41.70;;;22.27;;
24685;SDS011;12804;51.176;4.452;2022-12-01T06:07:32;42.10;;;23.00;;
24685;SDS011;12804;51.176;4.452;2022-12-01T06:10:00;40.90;;;22.42;;
24685;SDS011;12804;51.176;4.452;2022-12-01T06:12:26;39.47;;;22.00;;
24685;SDS011;12804;51.176;4.452;2022-12-01T06:14:52;42.75;;;23.67;;
24685;SDS011;12804;51.176;4.452;2022-12-01T06:17:18;42.40;;;22.55;;
24685;SDS011;12804;51.176;4.452;2022-12-01T06:19:44;42.92;;;24.80;;
24685;SDS011;12804;51.176;4.452;2022-12-01T06:22:11;42.80;;;23.48;;
24685;SDS011;12804;51.176;4.452;2022-12-01T06:24:37;44.78;;;25.20;;
24685;SDS011;12804;51.176;4.452;2022-12-01T06:27:03;41.45;;;23.25;;
24685;SDS011;12804;51.176;4.452;2022-12-01T06:29:28;43.15;;;23.83;;
24685;SDS011;12804;51.176;4.452;2022-12-01T06:31:54;44.80;;;23.98;;
24685;SDS011;12804;51.176;4.452;2022-12-01T06:34:20;43.38;;;24.42;;
24685;SDS011;12804;51.176;4.452;2022-12-01T06:36:46;40.85;;;23.67;;
24685;SDS011;12804;51.176;4.452;2022-12-01T06:39:13;44.60;;;24.52;;
24685;SDS011;12804;51.176;4.452;2022-12-01T06:41:40;42.20;;;24.35;;
24685;SDS011;12804;51.176;4.452;2022-12-01T06:44:06;42.90;;;23.42;;
24685;SDS011;12804;51.176;4.452;2022-12-01T06:46:32;43.63;;;24.45;;
24685;SDS011;12804;51.176;4.452;2022-12-01T06:48:58;48.15;;;24.50;;
24685;SDS011;12804;51.176;4.452;2022-12-01T06:51:24;46.00;;;24.10;;
24685;SDS011;12804;51.176;4.452;2022-12-01T06:53:53;46.30;;;25.20;;
24685;SDS011;12804;51.176;4.452;2022-12-01T06:56:19;44.58;;;25.05;;
24685;SDS011;12804;51.176;4.452;2022-12-01T06:58:46;43.42;;;24.05;;
24685;SDS011;12804;51.176;4.452;2022-12-01T07:01:16;47.65;;;25.02;;
24685;SDS011;12804;51.176;4.452;2022-12-01T07:03:42;41.80;;;24.27;;
24685;SDS011;12804;51.176;4.452;2022-12-01T07:06:12;44.95;;;24.92;;
24685;SDS011;12804;51.176;4.452;2022-12-01T07:08:37;46.53;;;25.45;;
24685;SDS011;12804;51.176;4.452;2022-12-01T07:11:05;49.80;;;26.05;;
24685;SDS011;12804;51.176;4.452;2022-12-01T07:13:32;44.22;;;25.00;;
24685;SDS011;12804;51.176;4.452;2022-12-01T07:15:58;42.30;;;24.25;;
24685;SDS011;12804;51.176;4.452;2022-12-01T07:18:25;46.55;;;25.40;;
24685;SDS011;12804;51.176;4.452;2022-12-01T07:20:51;47.63;;;25.40;;
24685;SDS011;12804;51.176;4.452;2022-12-01T07:23:16;45.53;;;25.15;;
24685;SDS011;12804;51.176;4.452;2022-12-01T07:25:42;47.17;;;24.35;;
24685;SDS011;12804;51.176;4.452;2022-12-01T07:28:08;47.40;;;24.27;;
24685;SDS011;12804;51.176;4.452;2022-12-01T07:30:34;43.00;;;24.30;;
24685;SDS011;12804;51.176;4.452;2022-12-01T07:33:00;35.65;;;20.30;;
24685;SDS011;12804;51.176;4.452;2022-12-01T07:35:26;46.88;;;25.63;;
24685;SDS011;12804;51.176;4.452;2022-12-01T07:37:55;43.40;;;24.50;;
24685;SDS011;12804;51.176;4.452;2022-12-01T07:40:21;41.58;;;23.92;;
24685;SDS011;12804;51.176;4.452;2022-12-01T07:42:47;43.20;;;23.23;;
24685;SDS011;12804;51.176;4.452;2022-12-01T07:45:13;39.53;;;22.92;;
24685;SDS011;12804;51.176;4.452;2022-12-01T07:47:39;42.92;;;23.23;;
24685;SDS011;12804;51.176;4.452;2022-12-01T07:50:05;40.90;;;23.50;;
24685;SDS011;12804;51.176;4.452;2022-12-01T07:52:31;45.05;;;24.55;;
24685;SDS011;12804;51.176;4.452;2022-12-01T07:54:57;44.17;;;24.27;;
24685;SDS011;12804;51.176;4.452;2022-12-01T07:57:23;43.30;;;24.45;;
24685;SDS011;12804;51.176;4.452;2022-12-01T07:59:49;42.47;;;23.92;;
24685;SDS011;12804;51.176;4.452;2022-12-01T08:02:14;43.70;;;24.40;;
24685;SDS011;12804;51.176;4.452;2022-12-01T08:04:41;45.35;;;24.30;;
24685;SDS011;12804;51.176;4.452;2022-12-01T08:07:07;42.75;;;23.67;;
24685;SDS011;12804;51.176;4.452;2022-12-01T08:09:34;43.30;;;23.25;;
24685;SDS011;12804;51.176;4.452;2022-12-01T08:11:59;46.75;;;25.05;;
24685;SDS011;12804;51.176;4.452;2022-12-01T08:14:25;41.83;;;24.63;;
24685;SDS011;12804;51.176;4.452;2022-12-01T08:16:51;45.20;;;24.30;;
24685;SDS011;12804;51.176;4.452;2022-12-01T08:19:17;45.25;;;23.25;;
24685;SDS011;12804;51.176;4.452;2022-12-01T08:21:42;41.30;;;23.42;;
24685;SDS011;12804;51.176;4.452;2022-12-01T08:24:08;42.85;;;22.95;;
24685;SDS011;12804;51.176;4.452;2022-12-01T08:26:35;41.83;;;24.10;;
24685;SDS011;12804;51.176;4.452;2022-12-01T08:29:01;42.90;;;24.35;;
24685;SDS011;12804;51.176;4.452;2022-12-01T08:31:28;45.22;;;24.67;;
24685;SDS011;12804;51.176;4.452;2022-12-01T08:33:55;40.92;;;23.95;;
24685;SDS011;12804;51.176;4.452;2022-12-01T08:36:22;43.45;;;24.83;;
24685;SDS011;12804;51.176;4.452;2022-12-01T08:38:49;47.60;;;25.15;;
24685;SDS011;12804;51.176;4.452;2022-12-01T08:41:17;48.40;;;25.23;;
24685;SDS011;12804;51.176;4.452;2022-12-01T08:43:43;43.03;;;24.67;;
24685;SDS011;12804;51.176;4.452;2022-12-01T08:46:10;40.92;;;22.15;;
24685;SDS011;12804;51.176;4.452;2022-12-01T08:48:37;44.25;;;24.67;;
24685;SDS011;12804;51.176;4.452;2022-12-01T08:53:38;44.90;;;23.77;;
24685;SDS011;12804;51.176;4.452;2022-12-01T08:56:12;48.22;;;25.17;;
24685;SDS011;12804;51.176;4.452;2022-12-01T08:58:41;46.05;;;24.40;;
24685;SDS011;12804;51.176;4.452;2022-12-01T09:01:11;52.42;;;25.42;;
24685;SDS011;12804;51.176;4.452;2022-12-01T09:03:39;48.45;;;24.63;;
24685;SDS011;12804;51.176;4.452;2022-12-01T09:06:07;42.10;;;24.10;;
24685;SDS011;12804;51.176;4.452;2022-12-01T09:08:37;44.40;;;23.70;;
24685;SDS011;12804;51.176;4.452;2022-12-01T09:11:08;47.60;;;23.83;;
24685;SDS011;12804;51.176;4.452;2022-12-01T09:13:37;42.67;;;23.17;;
24685;SDS011;12804;51.176;4.452;2022-12-01T09:16:06;47.35;;;24.75;;
24685;SDS011;12804;51.176;4.452;2022-12-01T09:18:34;47.80;;;24.63;;
24685;SDS011;12804;51.176;4.452;2022-12-01T09:21:07;52.08;;;25.80;;
24685;SDS011;12804;51.176;4.452;2022-12-01T09:23:38;51.00;;;25.13;;
24685;SDS011;12804;51.176;4.452;2022-12-01T09:26:05;44.83;;;24.80;;
24685;SDS011;12804;51.176;4.452;2022-12-01T09:28:31;48.65;;;25.23;;
24685;SDS011;12804;51.176;4.452;2022-12-01T09:31:02;41.58;;;24.48;;
24685;SDS011;12804;51.176;4.452;2022-12-01T09:33:29;44.30;;;23.75;;
24685;SDS011;12804;51.176;4.452;2022-12-01T09:35:59;43.63;;;23.70;;
24685;SDS011;12804;51.176;4.452;2022-12-01T09:38:29;47.38;;;24.55;;
24685;SDS011;12804;51.176;4.452;2022-12-01T09:40:58;47.10;;;24.83;;
24685;SDS011;12804;51.176;4.452;2022-12-01T09:43:28;42.92;;;24.17;;
24685;SDS011;12804;51.176;4.452;2022-12-01T09:45:59;41.75;;;23.05;;
24685;SDS011;12804;51.176;4.452;2022-12-01T09:48:31;41.83;;;23.67;;
24685;SDS011;12804;51.176;4.452;2022-12-01T09:51:25;40.63;;;23.58;;
24685;SDS011;12804;51.176;4.452;2022-12-01T09:53:55;42.60;;;23.25;;
24685;SDS011;12804;51.176;4.452;2022-12-01T09:56:23;43.95;;;22.65;;
24685;SDS011;12804;51.176;4.452;2022-12-01T09:58:55;42.47;;;23.05;;
24685;SDS011;12804;51.176;4.452;2022-12-01T10:01:36;40.08;;;23.00;;
24685;SDS011;12804;51.176;4.452;2022-12-01T10:04:10;41.08;;;23.15;;
24685;SDS011;12804;51.176;4.452;2022-12-01T10:06:39;40.03;;;23.52;;
24685;SDS011;12804;51.176;4.452;2022-12-01T10:11:57;43.33;;;23.40;;
24685;SDS011;12804;51.176;4.452;2022-12-01T10:14:47;43.15;;;24.45;;
24685;SDS011;12804;51.176;4.452;2022-12-01T10:20:05;41.92;;;23.95;;
24685;SDS011;12804;51.176;4.452;2022-12-01T10:25:33;39.38;;;22.13;;
24685;SDS011;12804;51.176;4.452;2022-12-01T10:34:34;39.13;;;22.80;;
24685;SDS011;12804;51.176;4.452;2022-12-01T10:37:02;40.45;;;23.85;;
24685;SDS011;12804;51.176;4.452;2022-12-01T10:42:05;42.60;;;24.20;;
24685;SDS011;12804;51.176;4.452;2022-12-01T10:44:36;40.88;;;23.95;;
24685;SDS011;12804;51.176;4.452;2022-12-01T10:47:04;42.55;;;23.60;;
24685;SDS011;12804;51.176;4.452;2022-12-01T10:49:42;41.47;;;23.10;;
24685;SDS011;12804;51.176;4.452;2022-12-01T10:52:25;42.50;;;23.00;;
24685;SDS011;12804;51.176;4.452;2022-12-01T10:55:03;37.63;;;22.77;;
24685;SDS011;12804;51.176;4.452;2022-12-01T10:57:50;35.60;;;21.35;;
24685;SDS011;12804;51.176;4.452;2022-12-01T11:00:22;36.15;;;21.65;;
24685;SDS011;12804;51.176;4.452;2022-12-01T11:02:55;32.95;;;20.92;;
24685;SDS011;12804;51.176;4.452;2022-12-01T11:07:47;36.35;;;20.48;;
24685;SDS011;12804;51.176;4.452;2022-12-01T11:10:18;34.42;;;20.95;;
24685;SDS011;12804;51.176;4.452;2022-12-01T11:13:06;34.67;;;19.55;;
24685;SDS011;12804;51.176;4.452;2022-12-01T11:15:53;35.85;;;19.05;;
24685;SDS011;12804;51.176;4.452;2022-12-01T11:23:35;35.85;;;20.77;;
24685;SDS011;12804;51.176;4.452;2022-12-01T11:28:34;34.38;;;19.85;;
24685;SDS011;12804;51.176;4.452;2022-12-01T11:31:07;33.55;;;20.75;;
24685;SDS011;12804;51.176;4.452;2022-12-01T11:33:46;36.70;;;20.67;;
24685;SDS011;12804;51.176;4.452;2022-12-01T11:36:29;33.42;;;21.15;;
24685;SDS011;12804;51.176;4.452;2022-12-01T11:44:53;34.30;;;20.42;;
24685;SDS011;12804;51.176;4.452;2022-12-01T11:47:23;35.85;;;21.13;;
24685;SDS011;12804;51.176;4.452;2022-12-01T11:49:51;34.05;;;21.05;;
24685;SDS011;12804;51.176;4.452;2022-12-01T11:52:35;35.55;;;20.50;;
24685;SDS011;12804;51.176;4.452;2022-12-01T11:57:41;37.50;;;21.83;;
24685;SDS011;12804;51.176;4.452;2022-12-01T12:00:12;36.35;;;21.48;;
24685;SDS011;12804;51.176;4.452;2022-12-01T12:11:20;36.80;;;22.17;;
24685;SDS011;12804;51.176;4.452;2022-12-01T12:25:28;35.17;;;20.77;;
24685;SDS011;12804;51.176;4.452;2022-12-01T12:31:09;35.40;;;20.60;;
24685;SDS011;12804;51.176;4.452;2022-12-01T12:45:34;36.10;;;20.63;;
24685;SDS011;12804;51.176;4.452;2022-12-01T12:53:26;34.58;;;18.90;;
24685;SDS011;12804;51.176;4.452;2022-12-01T12:55:58;31.10;;;18.20;;
24685;SDS011;12804;51.176;4.452;2022-12-01T12:58:30;34.50;;;19.33;;
24685;SDS011;12804;51.176;4.452;2022-12-01T13:01:24;31.42;;;19.45;;
24685;SDS011;12804;51.176;4.452;2022-12-01T13:06:50;35.78;;;19.65;;
24685;SDS011;12804;51.176;4.452;2022-12-01T13:09:39;34.08;;;20.27;;
24685;SDS011;12804;51.176;4.452;2022-12-01T13:14:56;31.95;;;18.58;;
24685;SDS011;12804;51.176;4.452;2022-12-01T13:17:36;32.85;;;19.77;;
24685;SDS011;12804;51.176;4.452;2022-12-01T13:20:05;32.92;;;19.02;;
24685;SDS011;12804;51.176;4.452;2022-12-01T13:22:38;31.35;;;18.73;;
24685;SDS011;12804;51.176;4.452;2022-12-01T13:25:04;34.38;;;19.10;;
24685;SDS011;12804;51.176;4.452;2022-12-01T13:27:33;31.73;;;19.08;;
24685;SDS011;12804;51.176;4.452;2022-12-01T13:30:01;29.30;;;17.63;;
24685;SDS011;12804;51.176;4.452;2022-12-01T13:32:31;28.23;;;17.00;;
24685;SDS011;12804;51.176;4.452;2022-12-01T13:35:00;28.63;;;17.35;;
24685;SDS011;12804;51.176;4.452;2022-12-01T13:37:34;28.25;;;16.90;;
24685;SDS011;12804;51.176;4.452;2022-12-01T13:40:11;29.70;;;17.50;;
24685;SDS011;12804;51.176;4.452;2022-12-01T13:43:00;30.85;;;17.15;;
24685;SDS011;12804;51.176;4.452;2022-12-01T13:45:33;30.38;;;17.75;;
24685;SDS011;12804;51.176;4.452;2022-12-01T13:48:01;29.70;;;17.23;;
24685;SDS011;12804;51.176;4.452;2022-12-01T13:56:03;31.35;;;17.70;;
24685;SDS011;12804;51.176;4.452;2022-12-01T13:58:46;28.17;;;17.42;;
24685;SDS011;12804;51.176;4.452;2022-12-01T14:14:36;29.42;;;16.05;;
24685;SDS011;12804;51.176;4.452;2022-12-01T14:17:05;29.20;;;16.42;;
24685;SDS011;12804;51.176;4.452;2022-12-01T14:25:04;28.67;;;15.60;;
24685;SDS011;12804;51.176;4.452;2022-12-01T14:27:51;26.98;;;15.75;;
24685;SDS011;12804;51.176;4.452;2022-12-01T14:36:24;32.30;;;17.67;;
24685;SDS011;12804;51.176;4.452;2022-12-01T14:43:56;31.25;;;17.45;;
24685;SDS011;12804;51.176;4.452;2022-12-01T14:46:30;29.52;;;17.15;;
24685;SDS011;12804;51.176;4.452;2022-12-01T14:49:04;27.95;;;16.90;;
24685;SDS011;12804;51.176;4.452;2022-12-01T14:51:37;30.92;;;16.95;;
24685;SDS011;12804;51.176;4.452;2022-12-01T14:54:11;31.48;;;17.20;;
24685;SDS011;12804;51.176;4.452;2022-12-01T14:56:46;31.13;;;17.13;;
24685;SDS011;12804;51.176;4.452;2022-12-01T14:59:18;28.60;;;16.17;;
24685;SDS011;12804;51.176;4.452;2022-12-01T15:01:47;31.30;;;16.52;;
24685;SDS011;12804;51.176;4.452;2022-12-01T15:04:16;26.75;;;16.15;;
24685;SDS011;12804;51.176;4.452;2022-12-01T15:06:42;29.08;;;17.25;;
24685;SDS011;12804;51.176;4.452;2022-12-01T15:09:12;31.30;;;17.35;;
24685;SDS011;12804;51.176;4.452;2022-12-01T15:14:21;28.08;;;17.40;;
24685;SDS011;12804;51.176;4.452;2022-12-01T15:16:56;30.10;;;18.02;;
24685;SDS011;12804;51.176;4.452;2022-12-01T15:19:27;29.55;;;17.25;;
24685;SDS011;12804;51.176;4.452;2022-12-01T15:21:58;34.17;;;19.08;;
24685;SDS011;12804;51.176;4.452;2022-12-01T15:24:36;34.78;;;19.58;;
24685;SDS011;12804;51.176;4.452;2022-12-01T15:27:02;34.15;;;18.83;;
24685;SDS011;12804;51.176;4.452;2022-12-01T15:29:32;36.67;;;20.02;;
24685;SDS011;12804;51.176;4.452;2022-12-01T15:32:06;39.72;;;21.38;;
24685;SDS011;12804;51.176;4.452;2022-12-01T15:34:38;40.38;;;21.13;;
24685;SDS011;12804;51.176;4.452;2022-12-01T15:37:17;39.95;;;21.80;;
24685;SDS011;12804;51.176;4.452;2022-12-01T15:39:49;45.75;;;22.60;;
24685;SDS011;12804;51.176;4.452;2022-12-01T15:42:26;42.40;;;23.05;;
24685;SDS011;12804;51.176;4.452;2022-12-01T15:45:00;44.85;;;23.55;;
24685;SDS011;12804;51.176;4.452;2022-12-01T15:53:18;40.05;;;21.35;;
24685;SDS011;12804;51.176;4.452;2022-12-01T15:55:50;41.22;;;22.23;;
24685;SDS011;12804;51.176;4.452;2022-12-01T15:58:19;42.92;;;24.00;;
24685;SDS011;12804;51.176;4.452;2022-12-01T16:01:00;48.15;;;24.02;;
24685;SDS011;12804;51.176;4.452;2022-12-01T16:03:28;44.45;;;24.70;;
24685;SDS011;12804;51.176;4.452;2022-12-01T16:05:54;47.92;;;25.08;;
24685;SDS011;12804;51.176;4.452;2022-12-01T16:08:22;46.85;;;25.80;;
24685;SDS011;12804;51.176;4.452;2022-12-01T16:11:12;45.28;;;24.90;;
24685;SDS011;12804;51.176;4.452;2022-12-01T16:21:45;45.80;;;24.88;;
24685;SDS011;12804;51.176;4.452;2022-12-01T16:26:51;47.90;;;24.98;;
24685;SDS011;12804;51.176;4.452;2022-12-01T16:32:32;46.08;;;25.38;;
24685;SDS011;12804;51.176;4.452;2022-12-01T16:35:20;42.58;;;23.30;;
24685;SDS011;12804;51.176;4.452;2022-12-01T16:37:49;44.03;;;24.25;;
24685;SDS011;12804;51.176;4.452;2022-12-01T16:40:15;43.63;;;24.48;;
24685;SDS011;12804;51.176;4.452;2022-12-01T16:42:43;42.58;;;23.10;;
24685;SDS011;12804;51.176;4.452;2022-12-01T16:45:10;44.95;;;24.10;;
24685;SDS011;12804;51.176;4.452;2022-12-01T16:47:39;50.92;;;25.17;;
24685;SDS011;12804;51.176;4.452;2022-12-01T16:50:05;43.88;;;22.98;;
24685;SDS011;12804;51.176;4.452;2022-12-01T16:52:33;42.05;;;23.60;;
24685;SDS011;12804;51.176;4.452;2022-12-01T16:55:00;41.58;;;23.48;;
24685;SDS011;12804;51.176;4.452;2022-12-01T16:57:26;42.20;;;22.77;;
24685;SDS011;12804;51.176;4.452;2022-12-01T16:59:52;38.40;;;22.60;;
24685;SDS011;12804;51.176;4.452;2022-12-01T17:02:17;43.83;;;23.50;;
24685;SDS011;12804;51.176;4.452;2022-12-01T17:04:43;39.05;;;22.13;;
24685;SDS011;12804;51.176;4.452;2022-12-01T17:07:09;39.72;;;22.92;;
24685;SDS011;12804;51.176;4.452;2022-12-01T17:09:35;39.95;;;22.58;;
24685;SDS011;12804;51.176;4.452;2022-12-01T17:12:01;37.42;;;21.27;;
24685;SDS011;12804;51.176;4.452;2022-12-01T17:14:26;34.45;;;21.35;;
24685;SDS011;12804;51.176;4.452;2022-12-01T17:16:52;39.22;;;22.63;;
24685;SDS011;12804;51.176;4.452;2022-12-01T17:19:18;36.05;;;21.48;;
24685;SDS011;12804;51.176;4.452;2022-12-01T17:21:44;38.22;;;22.30;;
24685;SDS011;12804;51.176;4.452;2022-12-01T17:24:09;39.95;;;22.08;;
24685;SDS011;12804;51.176;4.452;2022-12-01T17:26:35;36.42;;;21.45;;
24685;SDS011;12804;51.176;4.452;2022-12-01T17:29:01;38.30;;;21.42;;